createdAt,value
2023-03-17T00:01:54.806Z,17.50
2023-03-17T00:04:24.702Z,16.90
2023-03-17T00:06:53.910Z,16.20
2023-03-17T00:09:22.569Z,16.90
2023-03-17T00:11:50.792Z,13.20
2023-03-17T00:14:19.931Z,10.50
2023-03-17T00:16:51.255Z,16.50
2023-03-17T00:22:01.593Z,13.80
2023-03-17T00:24:31.189Z,11.20
2023-03-17T00:26:59.682Z,7.90
2023-03-17T00:29:28.027Z,13.00
2023-03-17T00:31:57.809Z,9.30
2023-03-17T00:34:25.664Z,11.10
2023-03-17T00:36:53.554Z,7.60
2023-03-17T00:39:25.496Z,6.20
2023-03-17T00:41:55.601Z,6.40
2023-03-17T00:44:24.257Z,5.70
2023-03-17T00:46:54.512Z,5.00
2023-03-17T00:49:25.761Z,5.20
2023-03-17T00:54:22.901Z,6.40
2023-03-17T00:56:52.561Z,5.90
2023-03-17T00:59:42.351Z,5.60
2023-03-17T01:02:13.245Z,3.50
2023-03-17T01:04:45.593Z,4.90
2023-03-17T01:07:15.732Z,5.00
2023-03-17T01:09:44.032Z,4.40
2023-03-17T01:12:15.460Z,3.10
2023-03-17T01:14:43.708Z,2.70
2023-03-17T01:17:17.072Z,3.10
2023-03-17T01:19:47.149Z,3.30
2023-03-17T01:22:15.143Z,3.30
2023-03-17T01:24:43.246Z,3.90
2023-03-17T01:27:12.350Z,2.80
2023-03-17T01:29:40.122Z,3.30
2023-03-17T01:32:07.971Z,3.30
2023-03-17T01:34:35.835Z,5.30
2023-03-17T01:37:03.784Z,5.10
2023-03-17T01:39:31.578Z,4.80
2023-03-17T01:42:01.481Z,4.30
2023-03-17T01:44:30.798Z,2.80
2023-03-17T01:46:58.757Z,4.80
2023-03-17T01:49:38.880Z,3.40
2023-03-17T01:52:10.591Z,4.90
2023-03-17T01:54:53.169Z,2.30
2023-03-17T01:57:37.144Z,2.70
2023-03-17T02:00:19.727Z,2.00
2023-03-17T02:02:51.687Z,3.10
2023-03-17T02:05:29.857Z,2.90
2023-03-17T02:07:57.840Z,3.50
2023-03-17T02:10:30.526Z,1.30
2023-03-17T02:13:03.909Z,1.20
2023-03-17T02:15:44.784Z,3.70
2023-03-17T02:18:14.135Z,2.30
2023-03-17T02:20:42.410Z,2.40
2023-03-17T02:23:10.728Z,1.70
2023-03-17T02:25:44.933Z,2.30
2023-03-17T02:28:19.016Z,2.00
2023-03-17T02:30:49.923Z,3.60
2023-03-17T02:33:19.110Z,3.00
2023-03-17T02:35:47.870Z,2.90
2023-03-17T02:38:17.433Z,2.40
2023-03-17T02:40:45.245Z,2.20
2023-03-17T02:43:13.188Z,4.90
2023-03-17T02:45:41.731Z,2.30
2023-03-17T02:50:40.768Z,5.60
2023-03-17T02:53:09.268Z,2.90
2023-03-17T02:55:37.128Z,4.20
2023-03-17T02:58:05.020Z,8.40
2023-03-17T03:00:33.939Z,8.00
2023-03-17T03:03:02.493Z,5.30
2023-03-17T03:05:30.454Z,5.60
2023-03-17T03:07:58.560Z,4.00
2023-03-17T03:10:27.072Z,3.00
2023-03-17T03:12:54.881Z,4.20
2023-03-17T03:15:23.153Z,3.60
2023-03-17T03:17:51.702Z,6.60
2023-03-17T03:20:20.925Z,9.50
2023-03-17T03:22:48.695Z,4.30
2023-03-17T03:25:17.104Z,7.30
2023-03-17T03:27:45.153Z,5.70
2023-03-17T03:30:13.331Z,6.20
2023-03-17T03:32:41.365Z,8.50
2023-03-17T03:35:10.533Z,8.90
2023-03-17T03:37:38.357Z,5.50
2023-03-17T03:40:07.531Z,4.90
2023-03-17T03:42:35.448Z,4.40
2023-03-17T03:45:03.647Z,5.70
2023-03-17T03:47:31.449Z,5.40
2023-03-17T03:49:59.245Z,6.50
2023-03-17T03:52:27.401Z,7.70
2023-03-17T03:54:55.198Z,4.70
2023-03-17T03:57:23.009Z,4.50
2023-03-17T03:59:51.017Z,4.90
2023-03-17T04:02:18.998Z,6.60
2023-03-17T04:04:47.473Z,5.70
2023-03-17T04:07:15.691Z,8.70
2023-03-17T04:09:43.549Z,6.70
2023-03-17T04:12:11.897Z,3.50
2023-03-17T04:14:39.617Z,4.70
2023-03-17T04:17:07.706Z,4.70
2023-03-17T04:19:35.622Z,2.60
2023-03-17T04:22:03.998Z,6.40
2023-03-17T04:24:31.865Z,4.90
2023-03-17T04:26:59.827Z,4.40
2023-03-17T04:29:28.713Z,5.80
2023-03-17T04:31:56.518Z,5.40
2023-03-17T04:34:24.369Z,3.00
2023-03-17T04:36:52.233Z,5.20
2023-03-17T04:39:20.717Z,4.70
2023-03-17T04:41:48.495Z,5.70
2023-03-17T04:44:16.305Z,5.50
2023-03-17T04:46:44.315Z,6.90
2023-03-17T04:49:12.999Z,11.30
2023-03-17T04:51:41.199Z,13.60
2023-03-17T04:54:08.985Z,11.00
2023-03-17T04:56:37.090Z,8.70
2023-03-17T04:59:05.064Z,6.50
2023-03-17T05:01:33.084Z,3.10
2023-03-17T05:04:01.108Z,6.60
2023-03-17T05:06:29.074Z,6.50
2023-03-17T05:08:57.006Z,9.00
2023-03-17T05:11:24.884Z,7.30
2023-03-17T05:13:52.677Z,11.80
2023-03-17T05:16:20.700Z,6.50
2023-03-17T05:18:48.621Z,7.90
2023-03-17T05:21:16.403Z,5.40
2023-03-17T05:23:44.535Z,7.70
2023-03-17T05:26:13.074Z,7.60
2023-03-17T05:28:40.829Z,7.00
2023-03-17T05:31:10.985Z,10.20
2023-03-17T05:33:39.323Z,8.50
2023-03-17T05:36:08.068Z,6.50
2023-03-17T05:38:36.015Z,8.40
2023-03-17T05:41:04.160Z,8.00
2023-03-17T05:43:32.157Z,9.10
2023-03-17T05:46:00.373Z,8.20
2023-03-17T05:48:28.165Z,6.50
2023-03-17T05:50:56.031Z,6.40
2023-03-17T05:53:23.882Z,8.10
2023-03-17T05:55:53.040Z,5.30
2023-03-17T05:58:21.105Z,6.50
2023-03-17T06:00:48.961Z,4.70
2023-03-17T06:03:17.123Z,6.30
2023-03-17T06:05:45.911Z,4.80
2023-03-17T06:08:13.944Z,6.50
2023-03-17T06:10:43.112Z,6.50
2023-03-17T06:13:11.687Z,7.90
2023-03-17T06:15:39.777Z,7.00
2023-03-17T06:18:07.979Z,7.30
2023-03-17T06:20:36.647Z,8.10
2023-03-17T06:23:05.772Z,7.50
2023-03-17T06:25:35.089Z,8.50
2023-03-17T06:28:05.511Z,7.20
2023-03-17T06:30:35.247Z,7.80
2023-03-17T06:33:04.490Z,8.20
2023-03-17T06:35:33.980Z,8.70
2023-03-17T06:38:02.397Z,8.50
2023-03-17T06:40:30.551Z,8.70
2023-03-17T06:42:58.577Z,7.20
2023-03-17T06:45:26.871Z,9.10
2023-03-17T06:47:55.368Z,10.60
2023-03-17T06:50:23.235Z,9.90
2023-03-17T06:52:52.009Z,10.00
2023-03-17T06:55:21.271Z,9.70
2023-03-17T06:57:51.080Z,8.60
2023-03-17T07:00:21.116Z,12.10
2023-03-17T07:02:49.681Z,7.80
2023-03-17T07:05:18.020Z,10.50
2023-03-17T07:07:46.307Z,9.10
2023-03-17T07:10:15.748Z,13.30
2023-03-17T07:12:43.849Z,8.10
2023-03-17T07:15:12.527Z,11.80
2023-03-17T07:17:40.459Z,10.00
2023-03-17T07:20:10.927Z,9.90
2023-03-17T07:22:38.751Z,10.40
2023-03-17T07:25:08.136Z,11.50
2023-03-17T07:27:36.105Z,12.50
2023-03-17T07:30:05.819Z,13.20
2023-03-17T07:32:35.339Z,9.70
2023-03-17T07:35:04.871Z,11.50
2023-03-17T07:37:32.892Z,14.40
2023-03-17T07:40:01.064Z,9.30
2023-03-17T07:42:29.025Z,11.30
2023-03-17T07:44:56.977Z,12.60
2023-03-17T07:47:24.796Z,10.90
2023-03-17T07:49:53.372Z,11.90
2023-03-17T07:52:21.311Z,10.90
2023-03-17T07:54:49.268Z,13.20
2023-03-17T07:57:17.308Z,10.20
2023-03-17T07:59:45.595Z,11.20
2023-03-17T08:02:16.936Z,12.90
2023-03-17T08:04:45.625Z,13.10
2023-03-17T08:07:14.679Z,13.00
2023-03-17T08:09:42.858Z,14.40
2023-03-17T08:12:11.648Z,14.10
2023-03-17T08:14:39.589Z,13.60
2023-03-17T08:17:08.272Z,14.80
2023-03-17T08:19:36.499Z,12.90
2023-03-17T08:22:04.640Z,14.00
2023-03-17T08:24:33.089Z,14.40
2023-03-17T08:27:01.639Z,13.40
2023-03-17T08:29:30.424Z,10.80
2023-03-17T08:31:58.377Z,10.40
2023-03-17T08:34:26.975Z,11.40
2023-03-17T08:36:54.931Z,11.50
2023-03-17T08:39:22.947Z,9.60
2023-03-17T08:41:51.035Z,15.80
2023-03-17T08:44:19.651Z,8.80
2023-03-17T08:46:49.524Z,12.30
2023-03-17T08:49:17.838Z,11.00
2023-03-17T08:51:46.206Z,12.10
2023-03-17T08:54:14.064Z,15.10
2023-03-17T08:56:42.540Z,11.40
2023-03-17T08:59:10.977Z,14.10
2023-03-17T09:01:40.203Z,11.50
2023-03-17T09:04:08.959Z,13.50
2023-03-17T09:06:38.809Z,14.00
2023-03-17T09:09:07.656Z,14.00
2023-03-17T09:11:35.485Z,15.50
2023-03-17T09:14:03.662Z,10.70
2023-03-17T09:16:34.411Z,11.80
2023-03-17T09:19:03.786Z,12.80
2023-03-17T09:21:32.009Z,10.30
2023-03-17T09:24:02.402Z,9.90
2023-03-17T09:26:30.791Z,13.50
2023-03-17T09:28:58.586Z,13.30
2023-03-17T09:31:26.784Z,14.00
2023-03-17T09:33:54.815Z,12.80
2023-03-17T09:36:23.702Z,14.10
2023-03-17T09:38:51.807Z,12.90
2023-03-17T09:41:47.051Z,13.30
2023-03-17T09:44:43.921Z,14.20
2023-03-17T09:47:28.614Z,12.00
2023-03-17T09:50:01.177Z,12.60
2023-03-17T09:52:34.512Z,16.20
2023-03-17T09:55:08.582Z,14.40
2023-03-17T09:57:40.454Z,10.90
2023-03-17T10:00:27.383Z,11.40
2023-03-17T10:02:57.883Z,12.80
2023-03-17T10:05:33.193Z,10.50
2023-03-17T10:08:31.098Z,9.40
2023-03-17T10:11:10.994Z,8.50
2023-03-17T10:13:51.768Z,9.80
2023-03-17T10:16:28.288Z,8.80
2023-03-17T10:19:11.615Z,9.10
2023-03-17T10:21:54.066Z,8.70
2023-03-17T10:24:23.352Z,7.70
2023-03-17T10:26:57.515Z,9.70
2023-03-17T10:29:25.487Z,8.20
2023-03-17T10:31:58.463Z,8.30
2023-03-17T10:34:34.288Z,9.70
2023-03-17T10:37:23.213Z,7.20
2023-03-17T10:39:56.146Z,10.10
2023-03-17T10:42:33.323Z,7.80
2023-03-17T10:45:13.272Z,7.80
2023-03-17T10:47:48.170Z,5.40
2023-03-17T10:50:34.418Z,5.30
2023-03-17T10:53:29.229Z,7.80
2023-03-17T10:56:08.400Z,4.30
2023-03-17T10:58:44.670Z,4.40
2023-03-17T11:01:30.192Z,5.40
2023-03-17T11:04:02.525Z,5.70
2023-03-17T11:06:42.355Z,3.90
2023-03-17T11:09:18.418Z,4.20
2023-03-17T11:11:58.972Z,3.60
2023-03-17T11:14:30.457Z,4.90
2023-03-17T11:17:01.496Z,5.30
2023-03-17T11:19:50.897Z,6.50
2023-03-17T11:22:35.096Z,8.80
2023-03-17T11:25:15.319Z,11.70
2023-03-17T11:27:55.957Z,9.90
2023-03-17T11:30:50.413Z,13.60
2023-03-17T11:34:13.270Z,11.00
2023-03-17T11:37:10.166Z,12.70
2023-03-17T11:40:12.308Z,11.90
2023-03-17T11:42:42.958Z,10.20
2023-03-17T11:45:44.091Z,9.70
2023-03-17T11:48:27.898Z,8.40
2023-03-17T11:51:06.673Z,10.90
2023-03-17T11:53:58.601Z,8.60
2023-03-17T11:56:47.895Z,10.60
2023-03-17T11:59:41.958Z,17.90
2023-03-17T12:02:31.545Z,10.10
2023-03-17T12:05:09.895Z,28.50
2023-03-17T12:07:51.361Z,13.60
2023-03-17T12:13:07.344Z,15.10
2023-03-17T12:15:50.906Z,10.90
2023-03-17T12:18:33.160Z,12.00
2023-03-17T12:21:14.131Z,9.10
2023-03-17T12:24:15.122Z,12.20
2023-03-17T12:27:05.082Z,12.90
2023-03-17T12:29:54.869Z,10.60
2023-03-17T12:32:42.201Z,10.30
2023-03-17T12:35:34.209Z,8.80
2023-03-17T12:38:13.743Z,13.30
2023-03-17T12:41:26.552Z,14.30
2023-03-17T12:44:00.552Z,11.40
2023-03-17T12:46:56.393Z,10.60
2023-03-17T12:49:39.009Z,15.80
2023-03-17T12:52:53.952Z,8.20
2023-03-17T12:55:27.351Z,12.20
2023-03-17T12:58:04.648Z,9.50
2023-03-17T13:00:49.105Z,9.90
2023-03-17T13:03:28.574Z,11.60
2023-03-17T13:06:17.204Z,11.60
2023-03-17T13:08:45.032Z,9.60
2023-03-17T13:11:47.208Z,16.70
2023-03-17T13:14:37.717Z,12.70
2023-03-17T13:17:19.725Z,6.60
2023-03-17T13:20:10.311Z,9.70
2023-03-17T13:22:42.456Z,9.60
2023-03-17T13:25:49.840Z,6.60
2023-03-17T13:28:41.189Z,8.40
2023-03-17T13:31:31.278Z,9.30
2023-03-17T13:34:15.228Z,10.30
2023-03-17T13:36:58.029Z,5.40
2023-03-17T13:40:07.971Z,8.80
2023-03-17T13:43:06.926Z,6.90
2023-03-17T13:45:41.413Z,5.70
2023-03-17T13:48:33.675Z,14.30
2023-03-17T13:51:25.646Z,6.20
2023-03-17T13:54:08.705Z,7.20
2023-03-17T13:56:36.685Z,10.70
2023-03-17T13:59:13.091Z,16.00
2023-03-17T14:02:20.430Z,2.60
2023-03-17T14:05:26.918Z,10.50
2023-03-17T14:07:59.548Z,10.20
2023-03-17T14:10:31.540Z,6.90
2023-03-17T14:13:20.007Z,5.10
2023-03-17T14:15:58.336Z,10.90
2023-03-17T14:18:38.312Z,7.10
2023-03-17T14:21:21.425Z,9.30
2023-03-17T14:23:54.889Z,7.00
2023-03-17T14:26:26.723Z,8.70
2023-03-17T14:28:55.762Z,6.00
2023-03-17T14:31:27.364Z,6.30
2023-03-17T14:34:00.439Z,6.80
2023-03-17T14:36:33.288Z,10.10
2023-03-17T14:39:01.085Z,10.70
2023-03-17T14:41:30.720Z,8.40
2023-03-17T14:44:01.763Z,10.30
2023-03-17T14:46:40.307Z,5.70
2023-03-17T14:49:21.321Z,11.10
2023-03-17T14:51:53.452Z,6.70
2023-03-17T14:54:31.491Z,6.00
2023-03-17T14:57:08.280Z,4.50
2023-03-17T14:59:40.509Z,8.80
2023-03-17T15:02:22.758Z,7.70
2023-03-17T15:05:38.357Z,9.70
2023-03-17T15:08:36.511Z,7.20
2023-03-17T15:11:07.125Z,6.70
2023-03-17T15:13:37.883Z,8.50
2023-03-17T15:16:35.486Z,8.80
2023-03-17T15:19:14.814Z,8.50
2023-03-17T15:21:43.393Z,9.20
2023-03-17T15:24:41.596Z,5.40
2023-03-17T15:27:18.588Z,12.30
2023-03-17T15:29:47.419Z,7.30
2023-03-17T15:32:21.823Z,5.50
2023-03-17T15:34:52.460Z,8.60
2023-03-17T15:37:34.221Z,4.90
2023-03-17T15:40:05.461Z,7.30
2023-03-17T15:42:37.641Z,6.50
2023-03-17T15:45:07.843Z,7.00
2023-03-17T15:47:40.747Z,7.80
2023-03-17T15:50:16.602Z,10.40
2023-03-17T15:52:45.621Z,12.30
2023-03-17T15:55:31.694Z,7.40
2023-03-17T15:58:00.371Z,11.20
2023-03-17T16:00:30.284Z,8.30
2023-03-17T16:03:04.118Z,4.30
2023-03-17T16:05:36.031Z,4.40
2023-03-17T16:08:04.964Z,5.10
2023-03-17T16:10:33.886Z,7.30
2023-03-17T16:13:01.805Z,5.20
2023-03-17T16:15:36.426Z,4.00
2023-03-17T16:18:14.118Z,5.50
2023-03-17T16:20:47.739Z,4.80
2023-03-17T16:23:23.344Z,6.50
2023-03-17T16:25:52.659Z,4.80
2023-03-17T16:28:30.932Z,8.80
2023-03-17T16:31:01.897Z,4.40
2023-03-17T16:33:40.950Z,4.50
2023-03-17T16:36:16.527Z,7.10
2023-03-17T16:38:45.469Z,6.60
2023-03-17T16:41:27.819Z,6.60
2023-03-17T16:44:02.559Z,4.40
2023-03-17T16:46:35.350Z,5.90
2023-03-17T16:49:05.504Z,4.90
2023-03-17T16:51:33.354Z,5.50
2023-03-17T16:54:01.184Z,5.10
2023-03-17T16:56:29.941Z,6.40
2023-03-17T16:58:57.863Z,4.20
2023-03-17T17:01:28.735Z,5.30
2023-03-17T17:03:57.069Z,5.60
2023-03-17T17:06:25.021Z,5.50
2023-03-17T17:08:53.194Z,5.00
2023-03-17T17:11:21.494Z,6.40
2023-03-17T17:13:49.930Z,4.90
2023-03-17T17:16:31.053Z,6.60
2023-03-17T17:18:59.926Z,7.80
2023-03-17T17:21:28.391Z,5.30
2023-03-17T17:23:56.781Z,7.00
2023-03-17T17:26:24.645Z,5.20
2023-03-17T17:28:52.591Z,6.40
2023-03-17T17:31:20.635Z,5.40
2023-03-17T17:33:48.709Z,7.00
2023-03-17T17:36:17.859Z,7.30
2023-03-17T17:38:45.983Z,8.00
2023-03-17T17:41:14.620Z,4.90
2023-03-17T17:43:42.534Z,9.20
2023-03-17T17:46:22.581Z,6.20
2023-03-17T17:48:50.882Z,6.70
2023-03-17T17:51:18.788Z,5.90
2023-03-17T17:53:46.616Z,8.30
2023-03-17T17:56:17.744Z,6.70
2023-03-17T17:58:46.540Z,5.70
2023-03-17T18:01:19.613Z,8.80
2023-03-17T18:03:48.259Z,5.90
2023-03-17T18:06:17.905Z,6.30
2023-03-17T18:08:45.999Z,11.80
2023-03-17T18:11:13.865Z,10.40
2023-03-17T18:13:41.706Z,8.70
2023-03-17T18:16:19.330Z,14.30
2023-03-17T18:18:47.321Z,9.00
2023-03-17T18:21:15.957Z,9.50
2023-03-17T18:23:47.302Z,7.00
2023-03-17T18:28:45.917Z,9.90
2023-03-17T18:31:22.353Z,7.20
2023-03-17T18:33:57.448Z,9.20
2023-03-17T18:36:25.572Z,5.90
2023-03-17T18:38:53.878Z,7.70
2023-03-17T18:41:21.956Z,5.50
2023-03-17T18:43:50.570Z,5.50
2023-03-17T18:46:18.684Z,8.60
2023-03-17T18:48:46.712Z,9.60
2023-03-17T18:51:14.696Z,9.30
2023-03-17T18:53:42.826Z,11.40
2023-03-17T18:56:10.792Z,15.30
2023-03-17T18:58:38.667Z,18.10
2023-03-17T19:01:06.726Z,24.40
2023-03-17T19:03:35.390Z,23.80
2023-03-17T19:06:14.029Z,13.30
2023-03-17T19:08:42.892Z,14.40
2023-03-17T19:11:13.964Z,13.70
2023-03-17T19:13:42.416Z,12.50
2023-03-17T19:16:10.628Z,9.30
2023-03-17T19:18:41.910Z,11.10
2023-03-17T19:21:11.383Z,10.20
2023-03-17T19:23:41.413Z,11.80
2023-03-17T19:26:10.288Z,15.90
2023-03-17T19:28:38.105Z,17.60
2023-03-17T19:31:06.268Z,14.10
2023-03-17T19:33:34.315Z,13.20
2023-03-17T19:36:09.600Z,11.10
2023-03-17T19:38:38.275Z,9.50
2023-03-17T19:41:06.667Z,11.20
2023-03-17T19:43:40.825Z,9.10
2023-03-17T19:46:12.402Z,11.40
2023-03-17T19:48:40.753Z,12.60
2023-03-17T19:51:09.384Z,8.50
2023-03-17T19:53:37.662Z,9.90
2023-03-17T19:56:07.241Z,14.10
2023-03-17T19:58:35.331Z,13.40
2023-03-17T20:01:05.453Z,9.00
2023-03-17T20:03:33.995Z,11.70
2023-03-17T20:06:06.079Z,14.50
2023-03-17T20:08:34.160Z,14.80
2023-03-17T20:11:02.856Z,11.70
2023-03-17T20:13:30.768Z,15.20
2023-03-17T20:15:58.706Z,13.30
2023-03-17T20:18:26.595Z,13.50
2023-03-17T20:20:54.934Z,11.60
2023-03-17T20:23:23.586Z,14.60
2023-03-17T20:25:53.298Z,15.20
2023-03-17T20:28:21.787Z,11.70
2023-03-17T20:30:50.298Z,11.80
2023-03-17T20:33:18.258Z,14.10
2023-03-17T20:35:47.333Z,11.60
2023-03-17T20:38:16.054Z,12.50
2023-03-17T20:40:43.935Z,13.90
2023-03-17T20:43:12.055Z,15.00
2023-03-17T20:45:41.453Z,10.30
2023-03-17T20:48:11.151Z,11.10
2023-03-17T20:50:40.084Z,14.80
2023-03-17T20:53:08.686Z,12.10
2023-03-17T20:55:37.505Z,12.60
2023-03-17T20:58:05.314Z,13.80
2023-03-17T21:00:33.696Z,12.60
2023-03-17T21:03:02.184Z,11.40
2023-03-17T21:05:32.370Z,14.70
2023-03-17T21:08:00.412Z,10.00
2023-03-17T21:10:28.412Z,11.30
2023-03-17T21:12:56.274Z,10.00
2023-03-17T21:15:24.835Z,12.80
2023-03-17T21:17:53.743Z,12.60
2023-03-17T21:20:21.718Z,13.70
2023-03-17T21:22:49.897Z,14.40
2023-03-17T21:25:17.966Z,10.60
2023-03-17T21:27:46.087Z,11.80
2023-03-17T21:30:14.933Z,10.80
2023-03-17T21:32:42.965Z,11.60
2023-03-17T21:35:11.791Z,15.90
2023-03-17T21:37:39.604Z,11.60
2023-03-17T21:40:09.318Z,13.20
2023-03-17T21:42:37.107Z,12.40
2023-03-17T21:45:06.020Z,13.60
2023-03-17T21:47:36.212Z,15.00
2023-03-17T21:50:05.343Z,14.70
2023-03-17T21:52:33.311Z,14.50
2023-03-17T21:55:01.314Z,16.90
2023-03-17T21:57:29.824Z,19.00
2023-03-17T21:59:57.695Z,14.90
2023-03-17T22:02:25.722Z,16.70
2023-03-17T22:04:53.678Z,13.70
2023-03-17T22:07:21.658Z,14.40
2023-03-17T22:09:53.638Z,18.60
2023-03-17T22:12:21.480Z,15.50
2023-03-17T22:14:49.444Z,17.10
2023-03-17T22:17:17.473Z,13.20
2023-03-17T22:19:45.385Z,16.50
2023-03-17T22:22:13.193Z,16.10
2023-03-17T22:24:41.680Z,16.90
2023-03-17T22:27:09.697Z,16.30
2023-03-17T22:29:38.066Z,19.90
2023-03-17T22:32:06.862Z,16.10
2023-03-17T22:34:36.742Z,17.30
2023-03-17T22:37:05.701Z,17.60
2023-03-17T22:39:34.651Z,18.90
2023-03-17T22:42:02.590Z,17.40
2023-03-17T22:44:30.780Z,17.20
2023-03-17T22:46:58.646Z,18.90
2023-03-17T22:49:26.513Z,19.00
2023-03-17T22:51:54.280Z,21.80
2023-03-17T22:54:22.296Z,21.40
2023-03-17T22:56:50.197Z,17.20
2023-03-17T22:59:18.011Z,19.20
2023-03-17T23:01:45.871Z,21.30
2023-03-17T23:04:14.140Z,23.70
2023-03-17T23:06:42.361Z,21.40
2023-03-17T23:09:10.298Z,23.00
2023-03-17T23:11:38.248Z,23.30
2023-03-17T23:14:06.295Z,23.50
2023-03-17T23:16:34.300Z,24.00
2023-03-17T23:19:02.725Z,22.80
2023-03-17T23:21:38.095Z,22.70
2023-03-17T23:24:08.680Z,24.00
2023-03-17T23:26:37.154Z,22.40
2023-03-17T23:29:08.400Z,22.60
2023-03-17T23:31:37.149Z,24.30
2023-03-17T23:34:06.668Z,20.60
2023-03-17T23:36:39.979Z,24.60
2023-03-17T23:39:08.852Z,22.50
2023-03-17T23:41:37.330Z,23.40
2023-03-17T23:44:05.639Z,22.50
2023-03-17T23:46:33.563Z,18.80
2023-03-17T23:49:01.699Z,21.70
2023-03-17T23:51:29.493Z,19.20
2023-03-17T23:53:58.329Z,16.60
2023-03-17T23:56:26.276Z,19.20
2023-03-17T23:58:54.768Z,17.20
